Time;durP1;ratioP1;P1;durP2;ratioP2;P2;SDS_P1;SDS_P2;PMS_P1;PMS_P2;Temp;Humidity;BMP_temperature;BMP_pressure;BME280_temperature;BME280_humidity;BME280_pressure;Samples;Min_cycle;Max_cycle;Signal;HPM_P1;HPM_P2
2023/03/17 00:01:53;;;;;;;6.88;4.07;;;;;;;3.57;81.96;101038.72;4966051;28;20038;-85
2023/03/17 00:04:19;;;;;;;7.82;4.60;;;;;;;3.66;81.85;101042.56;4974553;28;20438;-82
2023/03/17 00:06:45;;;;;;;8.20;4.95;;;;;;;3.83;81.00;101062.66;4956197;28;20053;-84
2023/03/17 00:09:16;;;;;;;7.22;4.55;;;;;;;3.69;81.07;101037.03;4955386;28;20049;-83
2023/03/17 00:11:44;;;;;;;6.50;3.85;;;;;;;3.73;80.97;101043.84;4966548;28;20133;-84
2023/03/17 00:14:13;;;;;;;6.75;4.50;;;;;;;3.78;81.30;101062.97;4983238;28;20041;-82
2023/03/17 00:16:47;;;;;;;8.88;4.63;;;;;;;3.72;81.34;101064.28;4982105;28;20136;-83
2023/03/17 00:19:29;;;;;;;7.65;4.85;;;;;;;3.83;81.42;101071.47;4955017;28;20030;-84
2023/03/17 00:21:56;;;;;;;10.02;4.53;;;;;;;3.84;80.98;101067.00;4964437;28;20094;-84
2023/03/17 00:24:22;;;;;;;6.35;3.97;;;;;;;3.89;80.85;101065.75;4983302;28;20085;-85
2023/03/17 00:26:47;;;;;;;8.10;4.60;;;;;;;3.82;80.88;101056.50;4966618;28;20202;-83
2023/03/17 00:29:15;;;;;;;7.18;4.10;;;;;;;3.86;80.75;101049.97;4968787;28;20038;-83
2023/03/17 00:31:41;;;;;;;7.50;4.53;;;;;;;3.76;80.83;101038.28;4966745;28;20038;-83
2023/03/17 00:34:11;;;;;;;8.35;4.45;;;;;;;3.90;81.11;101050.63;4953726;28;20026;-84
2023/03/17 00:36:40;;;;;;;7.20;4.55;;;;;;;3.87;80.54;101056.16;4955970;28;20034;-83
2023/03/17 00:39:06;;;;;;;7.07;4.40;;;;;;;3.75;80.41;101025.97;4985097;28;20136;-84
2023/03/17 00:41:32;;;;;;;;;;;;;;;3.89;80.10;101048.94;4963388;28;20050;-83
2023/03/17 00:43:58;;;;;;;;;;;;;;;3.91;80.33;101055.84;4988486;28;20021;-84
2023/03/17 00:46:24;;;;;;;;;;;;;;;3.84;80.40;101061.69;4989803;28;19922;-82
2023/03/17 00:48:50;;;;;;;6.72;4.28;;;;;;;3.83;80.19;101055.50;4971692;28;20423;-84
2023/03/17 00:51:18;;;;;;;8.77;4.85;;;;;;;3.84;80.47;101085.63;4990158;28;20043;-83
2023/03/17 00:53:45;;;;;;;7.65;4.18;;;;;;;3.85;80.00;101060.75;4975056;28;20034;-83
2023/03/17 00:56:16;;;;;;;6.32;4.43;;;;;;;3.67;79.84;101023.81;4950774;28;20096;-82
2023/03/17 00:58:42;;;;;;;6.78;4.30;;;;;;;3.70;79.62;101014.78;4965206;28;20102;-83
2023/03/17 01:01:09;;;;;;;6.85;4.05;;;;;;;3.85;79.56;101058.94;4976098;28;20411;-83
2023/03/17 01:03:35;;;;;;;7.68;3.88;;;;;;;3.70;79.64;101033.38;4989023;28;20230;-85
2023/03/17 01:06:01;;;;;;;6.20;3.50;;;;;;;3.84;79.16;101053.69;4956157;28;20033;-84
2023/03/17 01:08:27;;;;;;;5.50;3.35;;;;;;;3.79;79.10;101067.31;4945610;28;20079;-86
2023/03/17 01:10:53;;;;;;;6.13;3.92;;;;;;;3.78;79.22;101065.63;4989705;28;20977;-85
2023/03/17 01:13:22;;;;;;;5.03;3.25;;;;;;;3.80;79.03;101056.59;4961752;28;20039;-85
2023/03/17 01:15:50;;;;;;;5.13;3.65;;;;;;;3.76;79.21;101062.22;4965128;28;20038;-83
2023/03/17 01:18:18;;;;;;;5.82;3.17;;;;;;;3.84;78.48;101080.31;4993536;28;20037;-83
2023/03/17 01:20:44;;;;;;;5.32;2.97;;;;;;;3.81;78.26;101054.78;4973388;28;20477;-84
2023/03/17 01:23:11;;;;;;;5.50;3.25;;;;;;;3.84;78.74;101088.28;4970397;28;20153;-83
2023/03/17 01:25:38;;;;;;;5.07;3.30;;;;;;;3.77;78.00;101053.31;4956847;28;20477;-85
2023/03/17 01:28:05;;;;;;;5.15;3.25;;;;;;;3.77;77.97;101071.94;4968621;28;20034;-86
2023/03/17 01:30:34;;;;;;;4.85;2.90;;;;;;;3.67;77.87;101038.94;4954366;28;20042;-86
2023/03/17 01:33:00;;;;;;;6.00;3.25;;;;;;;3.80;77.64;101088.50;4965755;28;20429;-83
2023/03/17 01:35:28;;;;;;;6.32;3.22;;;;;;;3.83;77.39;101074.13;4974447;28;20074;-83
2023/03/17 01:37:54;;;;;;;5.35;2.97;;;;;;;3.89;77.09;101091.50;4958377;28;20050;-84
2023/03/17 01:40:50;;;;;;;5.35;3.05;;;;;;;3.89;76.48;101073.72;4974213;28;20446;-84
2023/03/17 01:43:29;;;;;;;5.03;3.08;;;;;;;3.87;76.71;101093.41;4985721;28;20039;-84
2023/03/17 01:46:23;;;;;;;5.10;2.95;;;;;;;3.79;76.64;101064.66;4969943;28;20459;-83
2023/03/17 01:49:15;;;;;;;6.28;3.03;;;;;;;3.83;76.59;101091.91;4972663;28;20133;-84
2023/03/17 01:52:00;;;;;;;4.47;2.80;;;;;;;3.88;76.92;101105.75;4977549;28;20043;-84
2023/03/17 01:54:37;;;;;;;4.55;2.53;;;;;;;3.86;76.64;101131.59;4991001;28;20022;-85
2023/03/17 01:57:09;;;;;;;5.25;3.15;;;;;;;3.71;76.50;101082.97;4950939;28;20466;-85
2023/03/17 01:59:39;;;;;;;4.53;2.97;;;;;;;3.85;76.71;101106.81;4971512;28;20026;-84
2023/03/17 02:02:07;;;;;;;4.93;3.28;;;;;;;3.84;76.41;101093.59;4987650;28;20145;-86
2023/03/17 02:04:34;;;;;;;5.70;3.47;;;;;;;3.78;76.55;101101.06;4961485;28;20241;-82
2023/03/17 02:06:59;;;;;;;9.07;4.35;;;;;;;3.79;76.87;101117.84;4954478;28;20152;-84
2023/03/17 02:09:27;;;;;;;4.97;3.20;;;;;;;3.86;76.59;101115.63;4951964;28;20101;-84
2023/03/17 02:11:53;;;;;;;6.13;2.95;;;;;;;3.93;76.25;101120.44;4990219;28;20086;-84
2023/03/17 02:14:20;;;;;;;5.93;3.50;;;;;;;3.91;76.44;101127.66;4990814;28;20034;-85
2023/03/17 02:16:47;;;;;;;5.15;3.03;;;;;;;3.92;76.27;101113.41;4973912;28;20050;-84
2023/03/17 02:19:12;;;;;;;5.68;3.30;;;;;;;3.71;76.39;101093.63;4974372;28;20034;-85
2023/03/17 02:21:44;;;;;;;5.45;3.40;;;;;;;3.71;76.50;101104.25;4947329;28;20116;-84
2023/03/17 02:24:35;;;;;;;5.63;3.33;;;;;;;3.84;76.63;101123.75;4945094;28;20089;-84
2023/03/17 02:27:17;;;;;;;5.95;3.58;;;;;;;3.84;76.72;101123.75;4952466;28;20050;-86
2023/03/17 02:29:45;;;;;;;6.63;4.03;;;;;;;3.72;76.32;101112.13;4944460;28;20490;-86
2023/03/17 02:32:13;;;;;;;6.18;3.70;;;;;;;3.82;76.68;101099.03;4950279;28;20066;-85
2023/03/17 02:34:39;;;;;;;5.75;3.53;;;;;;;3.66;76.66;101103.72;4971011;28;20034;-84
2023/03/17 02:37:06;;;;;;;6.25;3.60;;;;;;;3.72;76.91;101122.78;4952668;28;20058;-85
2023/03/17 02:39:33;;;;;;;5.43;3.20;;;;;;;3.82;76.19;101125.66;4974820;28;20116;-85
2023/03/17 02:41:59;;;;;;;6.93;3.88;;;;;;;3.88;76.38;101141.16;4955713;28;20030;-85
2023/03/17 02:44:25;;;;;;;7.20;3.47;;;;;;;3.89;76.11;101134.06;4941132;28;20613;-86
2023/03/17 02:46:51;;;;;;;5.38;3.42;;;;;;;3.79;76.36;101126.72;4971015;28;21424;-84
2023/03/17 02:49:17;;;;;;;6.45;3.80;;;;;;;3.91;76.07;101137.44;4940243;28;20550;-84
2023/03/17 02:51:42;;;;;;;6.38;3.60;;;;;;;3.93;75.98;101141.72;4957565;28;20110;-85
2023/03/17 02:54:11;;;;;;;6.10;3.67;;;;;;;3.74;76.02;101125.31;4952749;28;20069;-85
2023/03/17 02:56:38;;;;;;;5.65;3.58;;;;;;;3.87;75.50;101134.16;4953328;28;20422;-84
2023/03/17 02:59:06;;;;;;;4.82;3.00;;;;;;;3.89;75.47;101137.56;4935769;28;20549;-84
2023/03/17 03:01:38;;;;;;;6.20;3.78;;;;;;;3.84;75.63;101147.69;4968340;28;20054;-84
2023/03/17 03:04:03;;;;;;;6.22;2.65;;;;;;;3.84;75.37;101141.47;4977361;28;20073;-86
2023/03/17 03:06:30;;;;;;;7.00;3.15;;;;;;;3.73;75.55;101132.44;4959729;28;20117;-84
2023/03/17 03:08:56;;;;;;;5.00;2.85;;;;;;;3.78;75.49;101137.44;4938279;28;20049;-85
2023/03/17 03:11:22;;;;;;;;;;;;;;;3.84;75.28;101147.69;4952470;28;20123;-85
2023/03/17 03:13:47;;;;;;;4.95;3.03;;;;;;;3.70;75.28;101142.41;4957781;28;20354;-84
2023/03/17 03:16:13;;;;;;;5.88;3.30;;;;;;;3.65;75.17;101136.56;4966533;28;20034;-83
2023/03/17 03:18:41;;;;;;;6.15;3.13;;;;;;;3.67;75.10;101151.47;4955827;28;20093;-83
2023/03/17 03:21:09;;;;;;;7.43;3.55;;;;;;;3.70;74.85;101155.72;4966472;28;20089;-83
2023/03/17 03:23:35;;;;;;;4.75;3.00;;;;;;;3.71;74.45;101157.44;4989779;28;20444;-86
2023/03/17 03:26:03;;;;;;;6.68;3.65;;;;;;;3.66;74.44;101155.09;4942543;28;20042;-82
2023/03/17 03:28:31;;;;;;;5.07;3.20;;;;;;;3.68;74.26;101162.97;4988953;28;20042;-83
2023/03/17 03:30:57;;;;;;;5.75;3.53;;;;;;;3.55;74.22;101142.50;4971109;28;20057;-84
2023/03/17 03:33:23;;;;;;;7.35;3.70;;;;;;;3.45;74.14;101122.84;4963375;28;20421;-84
2023/03/17 03:35:49;;;;;;;7.70;2.95;;;;;;;3.77;73.86;101170.34;4981818;28;20062;-84
2023/03/17 03:38:14;;;;;;;5.60;3.45;;;;;;;3.70;73.79;101151.28;4956852;28;20174;-84
2023/03/17 03:40:40;;;;;;;5.03;3.10;;;;;;;3.77;73.70;101167.66;4960660;28;20038;-83
2023/03/17 03:43:07;;;;;;;5.00;3.38;;;;;;;3.72;73.79;101181.28;4960975;28;20281;-83
2023/03/17 03:45:33;;;;;;;5.60;3.03;;;;;;;3.76;73.58;101185.41;4988409;28;20116;-85
2023/03/17 03:48:01;;;;;;;5.50;3.13;;;;;;;3.86;73.23;101190.94;4952211;28;20038;-84
2023/03/17 03:50:27;;;;;;;5.53;3.10;;;;;;;3.76;72.86;101168.63;4976418;28;20788;-86
2023/03/17 03:52:54;;;;;;;5.85;3.30;;;;;;;3.79;73.03;101187.00;4972814;28;20041;-84
2023/03/17 03:55:20;;;;;;;7.13;3.30;;;;;;;3.73;73.12;101182.13;4955215;28;20057;-84
2023/03/17 03:57:46;;;;;;;6.60;3.22;;;;;;;3.81;73.05;101185.09;4954063;28;20038;-85
2023/03/17 04:00:13;;;;;;;7.13;3.28;;;;;;;3.55;73.39;101150.50;4970880;28;20034;-85
2023/03/17 04:02:43;;;;;;;5.03;3.00;;;;;;;3.77;73.59;101187.13;4975488;28;20418;-84
2023/03/17 04:05:09;;;;;;;5.20;3.03;;;;;;;3.77;73.37;101205.75;4957685;28;20630;-83
2023/03/17 04:07:36;;;;;;;6.20;3.20;;;;;;;3.79;72.87;101198.53;4977161;28;20038;-84
2023/03/17 04:10:04;;;;;;;5.55;2.90;;;;;;;3.76;72.72;101200.53;4972807;28;20544;-84
2023/03/17 04:12:31;;;;;;;4.82;3.05;;;;;;;3.63;72.73;101192.53;4952256;28;20038;-84
2023/03/17 04:14:57;;;;;;;5.75;3.00;;;;;;;3.76;72.77;101211.16;4938420;28;20096;-84
2023/03/17 04:17:22;;;;;;;6.78;3.08;;;;;;;3.71;72.86;101210.63;4954511;28;20030;-85
2023/03/17 04:19:48;;;;;;;5.03;3.17;;;;;;;3.66;72.69;101212.75;4965000;28;20046;-84
2023/03/17 04:22:13;;;;;;;5.80;3.17;;;;;;;3.44;72.61;101176.97;4956338;28;20070;-82
2023/03/17 04:24:41;;;;;;;6.67;3.10;;;;;;;3.69;72.50;101208.06;4972746;28;20136;-84
2023/03/17 04:27:08;;;;;;;4.47;2.75;;;;;;;3.64;72.47;101206.69;4966549;28;20333;-86
2023/03/17 04:29:33;;;;;;;;;;;;;;;3.75;72.37;101222.78;4941372;28;20944;-82
2023/03/17 04:31:59;;;;;;;6.30;3.13;;;;;;;3.71;72.67;101222.13;4957154;28;20056;-83
2023/03/17 04:34:26;;;;;;;5.90;2.97;;;;;;;3.73;72.37;101238.81;4939713;28;20043;-84
2023/03/17 04:36:52;;;;;;;7.00;3.10;;;;;;;3.45;72.85;101199.94;4939431;28;20913;-85
2023/03/17 04:39:17;;;;;;;6.43;3.05;;;;;;;3.64;72.72;101225.28;4969163;28;20126;-84
2023/03/17 04:41:44;;;;;;;;;;;;;;;3.71;72.19;101243.38;4955982;28;20042;-84
2023/03/17 04:44:09;;;;;;;4.82;2.60;;;;;;;3.57;72.30;101220.38;4937624;28;19980;-85
2023/03/17 04:46:38;;;;;;;5.50;3.13;;;;;;;3.46;72.25;101209.59;4971667;28;20111;-85
2023/03/17 04:49:03;;;;;;;4.28;2.60;;;;;;;3.60;72.22;101235.25;4933499;28;20111;-87
2023/03/17 04:51:32;;;;;;;7.03;2.70;;;;;;;3.71;72.42;101251.38;4939077;28;20042;-86
2023/03/17 04:53:58;;;;;;;4.78;2.65;;;;;;;3.68;72.04;101262.22;4952808;28;20315;-84
2023/03/17 04:56:24;;;;;;;6.15;2.90;;;;;;;3.64;71.99;101254.53;4970208;28;20034;-86
2023/03/17 04:58:49;;;;;;;5.70;2.75;;;;;;;3.65;71.85;101250.91;4949818;28;20113;-84
2023/03/17 05:01:17;;;;;;;6.85;2.80;;;;;;;3.58;72.09;101235.38;4937365;28;20454;-84
2023/03/17 05:03:42;;;;;;;6.18;2.80;;;;;;;3.70;71.50;101246.13;4936540;28;20042;-85
2023/03/17 05:06:08;;;;;;;6.03;3.00;;;;;;;3.79;71.88;101267.69;4935915;28;20065;-84
2023/03/17 05:08:35;;;;;;;4.85;2.67;;;;;;;3.59;71.21;101222.94;4954618;28;20052;-86
2023/03/17 05:11:01;;;;;;;5.68;3.15;;;;;;;3.81;71.23;101265.75;4951893;28;20128;-85
2023/03/17 05:13:26;;;;;;;6.55;2.47;;;;;;;3.71;70.96;101242.53;4958323;28;20039;-85
2023/03/17 05:15:55;;;;;;;5.33;2.57;;;;;;;3.83;70.77;101278.94;4942265;28;20481;-85
2023/03/17 05:18:26;;;;;;;3.78;2.42;;;;;;;3.72;70.52;101252.22;4970878;28;20049;-84
2023/03/17 05:20:51;;;;;;;5.05;2.38;;;;;;;3.88;70.26;101271.50;4954052;28;20041;-84
2023/03/17 05:23:19;;;;;;;4.43;2.58;;;;;;;3.77;70.08;101248.31;4958695;28;20056;-83
2023/03/17 05:25:45;;;;;;;6.47;2.47;;;;;;;3.84;69.90;101248.75;4985239;28;20061;-83
2023/03/17 05:28:11;;;;;;;;;;;;;;;3.96;69.74;101286.97;4957763;28;20080;-83
2023/03/17 05:30:36;;;;;;;;;;;;;;;3.97;70.12;101294.84;4990355;28;20434;-84
2023/03/17 05:33:02;;;;;;;4.90;2.83;;;;;;;3.83;70.34;101278.94;4979623;28;20377;-83
2023/03/17 05:35:28;;;;;;;5.80;2.97;;;;;;;3.99;69.78;101297.41;4987941;28;20269;-85
2023/03/17 05:37:54;;;;;;;4.85;3.00;;;;;;;3.84;69.72;101263.84;4968634;28;20078;-83
2023/03/17 05:40:19;;;;;;;;;;;;;;;4.12;69.54;101308.06;4953919;28;20038;-83
2023/03/17 05:42:45;;;;;;;;;;;;;;;4.07;69.55;101316.34;4971472;28;19968;-86
2023/03/17 05:45:12;;;;;;;4.33;2.50;;;;;;;3.84;68.95;101272.69;4957633;28;19921;-87
2023/03/17 05:47:38;;;;;;;5.95;3.08;;;;;;;4.24;68.25;101333.88;4987102;28;20053;-87
2023/03/17 05:50:05;;;;;;;8.45;2.97;;;;;;;4.31;67.94;101316.53;4993768;28;20475;-85
2023/03/17 05:52:31;;;;;;;6.53;3.20;;;;;;;4.39;67.63;101322.16;4961928;28;20501;-85
2023/03/17 05:54:57;;;;;;;6.70;3.25;;;;;;;4.54;66.87;101336.25;4956347;28;20070;-85
2023/03/17 05:57:23;;;;;;;5.55;2.88;;;;;;;4.53;67.19;101317.72;4971336;28;20054;-84
2023/03/17 05:59:50;;;;;;;6.78;3.00;;;;;;;4.57;66.11;101321.88;4991019;28;20134;-87
2023/03/17 06:02:15;;;;;;;4.68;2.38;;;;;;;4.70;66.07;101338.69;4967385;28;20058;-86
2023/03/17 06:04:42;;;;;;;8.23;2.67;;;;;;;4.59;65.97;101322.63;4953601;28;20447;-86
2023/03/17 06:07:10;;;;;;;6.07;2.78;;;;;;;4.62;65.71;101312.59;4968373;28;20570;-86
2023/03/17 06:09:40;;;;;;;9.00;2.95;;;;;;;4.75;65.32;101355.25;4991372;28;20092;-87
2023/03/17 06:12:07;;;;;;;6.82;3.22;;;;;;;4.73;65.10;101332.31;4979203;28;20033;-89
2023/03/17 06:14:35;;;;;;;11.23;5.38;;;;;;;4.99;66.74;101359.81;4970869;28;20031;-85
2023/03/17 06:17:01;;;;;;;11.57;4.72;;;;;;;5.04;66.12;101357.69;4969315;28;20462;-84
2023/03/17 06:19:27;;;;;;;9.73;3.70;;;;;;;5.06;65.23;101393.06;4970762;28;20050;-84
2023/03/17 06:21:56;;;;;;;6.57;2.85;;;;;;;5.13;64.89;101378.34;4988428;28;20092;-85
2023/03/17 06:24:21;;;;;;;10.00;2.88;;;;;;;5.01;64.16;101379.19;4963103;28;20405;-84
2023/03/17 06:26:47;;;;;;;7.10;2.80;;;;;;;5.16;63.50;101388.78;4984863;28;20109;-83
2023/03/17 06:29:14;;;;;;;8.75;3.30;;;;;;;5.15;63.49;101411.09;4968833;28;20038;-84
2023/03/17 06:31:41;;;;;;;8.70;2.90;;;;;;;5.19;63.64;101403.72;4967890;28;20420;-83
2023/03/17 06:34:07;;;;;;;10.85;3.72;;;;;;;5.23;63.14;101392.72;4990407;28;20026;-85
2023/03/17 06:36:33;;;;;;;6.43;3.10;;;;;;;5.26;62.58;101405.81;4954328;28;20027;-82
2023/03/17 06:38:59;;;;;;;8.57;2.90;;;;;;;5.42;61.96;101416.25;4974907;28;20050;-82
2023/03/17 06:41:25;;;;;;;7.15;3.40;;;;;;;5.26;62.33;101405.81;4945711;28;20046;-83
2023/03/17 06:43:53;;;;;;;5.68;2.83;;;;;;;5.31;62.62;101420.66;4968987;28;20043;-82
2023/03/17 06:46:19;;;;;;;10.75;3.72;;;;;;;5.42;62.13;101418.94;4992192;28;20034;-81
2023/03/17 06:48:45;;;;;;;7.43;3.28;;;;;;;5.15;62.27;101387.09;4985538;28;20037;-83
2023/03/17 06:51:12;;;;;;;5.00;2.50;;;;;;;5.33;61.87;101416.06;4970155;28;20422;-85
2023/03/17 06:53:37;;;;;;;6.00;3.47;;;;;;;5.42;61.88;101408.25;4962253;28;20313;-86
2023/03/17 06:56:03;;;;;;;5.45;2.85;;;;;;;5.45;60.57;101412.53;4966429;28;20486;-84
2023/03/17 06:58:30;;;;;;;;;;;;;;;5.70;60.18;101436.47;4957107;28;20107;-82
2023/03/17 07:00:57;;;;;;;6.43;2.47;;;;;;;5.66;60.07;101418.97;4989470;28;20326;-85
2023/03/17 07:03:24;;;;;;;8.13;2.95;;;;;;;5.81;59.93;101433.06;4967003;28;20365;-83
2023/03/17 07:05:52;;;;;;;6.05;2.55;;;;;;;5.58;59.49;101421.38;4970502;28;20360;-83
2023/03/17 07:08:18;;;;;;;5.82;2.60;;;;;;;5.57;59.94;101430.34;4981539;28;20082;-83
2023/03/17 07:10:45;;;;;;;10.18;3.30;;;;;;;5.88;59.68;101433.47;4971236;28;20530;-82
2023/03/17 07:13:12;;;;;;;7.68;3.13;;;;;;;5.82;59.29;101426.75;4973644;28;20046;-83
2023/03/17 07:15:38;;;;;;;6.32;2.90;;;;;;;5.80;59.20;101401.13;4971756;28;20033;-84
2023/03/17 07:18:05;;;;;;;14.02;3.33;;;;;;;6.01;59.25;101422.75;4969935;28;20030;-84
2023/03/17 07:20:32;;;;;;;9.13;2.72;;;;;;;6.16;57.61;101426.09;4972878;28;20038;-82
2023/03/17 07:22:58;;;;;;;7.00;3.05;;;;;;;5.96;57.56;101412.41;4965935;28;20538;-82
2023/03/17 07:25:23;;;;;;;4.78;2.58;;;;;;;6.01;57.40;101422.75;4983112;28;20069;-79
2023/03/17 07:27:50;;;;;;;7.07;2.72;;;;;;;6.06;57.94;101426.81;4963286;28;20034;-82
2023/03/17 07:30:17;;;;;;;7.78;3.05;;;;;;;6.01;58.10;101422.75;4970264;28;20026;-81
2023/03/17 07:32:45;;;;;;;9.30;2.97;;;;;;;6.16;57.65;101410.09;4967676;28;20058;-85
2023/03/17 07:35:11;;;;;;;4.13;2.50;;;;;;;6.23;56.90;101411.38;4985475;28;20069;-84
2023/03/17 07:37:40;;;;;;;7.13;2.30;;;;;;;6.29;55.76;101406.38;4985137;28;20034;-83
2023/03/17 07:40:08;;;;;;;5.78;2.40;;;;;;;6.33;56.79;101423.06;4970858;28;20562;-87
2023/03/17 07:42:37;;;;;;;7.10;2.85;;;;;;;6.46;56.08;101418.50;4947773;28;20030;-91
2023/03/17 07:45:04;;;;;;;8.15;2.60;;;;;;;6.63;55.67;101413.69;4973481;28;20474;-89
2023/03/17 07:47:34;;;;;;;8.10;2.80;;;;;;;6.45;55.75;101403.41;4990626;28;20104;-89
2023/03/17 07:50:00;;;;;;;6.82;2.85;;;;;;;6.33;55.08;101407.88;4996292;28;20034;-89
2023/03/17 07:52:26;;;;;;;4.78;2.13;;;;;;;6.47;54.82;101397.97;4937461;28;20047;-88
2023/03/17 07:54:52;;;;;;;6.28;2.17;;;;;;;6.40;54.37;101389.56;4989822;28;20090;-89
2023/03/17 07:57:17;;;;;;;4.03;2.15;;;;;;;6.58;53.74;101416.72;4951317;28;20414;-88
2023/03/17 07:59:43;;;;;;;6.60;2.42;;;;;;;6.48;53.79;101408.53;4989127;28;20042;-86
2023/03/17 08:02:13;;;;;;;6.85;2.10;;;;;;;6.58;53.77;101411.38;4970801;28;20030;-86
2023/03/17 08:04:39;;;;;;;5.97;2.30;;;;;;;6.93;52.72;101437.19;4972724;28;20089;-90
2023/03/17 08:07:05;;;;;;;5.13;2.20;;;;;;;6.83;53.36;101418.34;4958082;28;20495;-93
2023/03/17 08:09:37;;;;;;;8.38;2.50;;;;;;;6.90;53.70;101413.38;4966603;28;20040;-95
2023/03/17 08:12:05;;;;;;;4.97;2.60;;;;;;;7.12;51.75;101425.94;4942331;28;20065;-91
2023/03/17 08:14:37;;;;;;;4.82;2.13;;;;;;;7.07;52.37;101422.75;4969174;28;20061;-92
2023/03/17 08:17:05;;;;;;;6.10;2.17;;;;;;;7.17;52.25;101427.28;4974646;28;20130;-93
2023/03/17 08:19:31;;;;;;;4.28;2.00;;;;;;;7.13;51.45;101424.97;4951146;28;20066;-94
2023/03/17 08:21:57;;;;;;;;;;;;;;;7.49;51.23;101460.47;4990814;28;20038;-94
2023/03/17 08:24:25;;;;;;;5.70;2.20;;;;;;;7.29;51.90;101411.25;4982428;28;19905;-96
2023/03/17 08:26:54;;;;;;;6.00;2.10;;;;;;;7.33;51.11;101451.00;5102778;23;20070;-93
2023/03/17 08:29:25;;;;;;;5.60;2.30;;;;;;;7.20;50.87;101423.50;4993915;23;20081;-91
2023/03/17 08:32:04;;;;;;;5.35;2.08;;;;;;;7.26;51.35;101460.47;5018624;28;20044;-92
2023/03/17 08:34:43;;;;;;;4.75;2.33;;;;;;;7.04;51.41;101410.47;5008689;28;20056;-95
2023/03/17 08:37:11;;;;;;;3.70;1.95;;;;;;;7.27;51.75;101439.94;4991453;28;20052;-93
2023/03/17 08:39:39;;;;;;;8.00;2.50;;;;;;;7.43;52.04;101464.50;5035952;28;20043;-88
2023/03/17 08:42:06;;;;;;;6.47;2.10;;;;;;;7.27;51.48;101435.44;4992448;28;20183;-91
2023/03/17 08:44:33;;;;;;;6.75;2.53;;;;;;;7.34;51.71;101457.19;5010124;28;20546;-87
2023/03/17 08:47:03;;;;;;;8.30;2.40;;;;;;;7.36;50.94;101429.34;5034197;28;20057;-94
2023/03/17 08:49:30;;;;;;;3.85;1.85;;;;;;;7.34;50.36;101431.28;4998144;28;20440;-89
2023/03/17 08:51:56;;;;;;;4.45;1.90;;;;;;;7.21;51.16;101443.94;5000409;28;20096;-92
2023/03/17 08:54:21;;;;;;;5.03;2.38;;;;;;;7.46;51.21;101442.00;5001285;28;20121;-92
2023/03/17 08:56:49;;;;;;;3.70;1.50;;;;;;;7.29;49.99;101432.63;5010158;28;20520;-92
2023/03/17 08:59:15;;;;;;;6.07;2.08;;;;;;;7.48;50.21;101434.72;5024441;28;20120;-83
2023/03/17 09:01:43;;;;;;;3.38;1.50;;;;;;;7.49;49.63;101421.22;5033700;28;20061;-86
2023/03/17 09:04:09;;;;;;;9.25;1.80;;;;;;;7.60;49.54;101431.03;5014869;28;20367;-87
2023/03/17 09:07:32;;;;;;;4.68;2.13;;;;;;;7.78;49.99;101456.34;5046601;28;20101;-88
2023/03/17 09:23:36;;;;;;;5.20;2.00;;;;;;;8.15;49.02;101437.28;5129741;23;20072;-88
2023/03/17 09:26:48;;;;;;;;;;;;;;;;;;;;;
2023/03/17 11:22:08;;;;;;;9.45;3.10;;;;;;;10.93;43.43;101377.84;5698476;23;20051;-88
2023/03/17 11:24:40;;;;;;;4.28;2.67;;;;;;;10.96;42.59;101407.16;4910453;29;20047;-88
2023/03/17 11:27:37;;;;;;;7.72;2.63;;;;;;;11.17;42.14;101412.34;4919558;29;20067;-89
2023/03/17 11:30:25;;;;;;;8.93;3.67;;;;;;;11.33;42.46;101402.78;4873073;29;20075;-90
2023/03/17 11:33:01;;;;;;;5.40;3.13;;;;;;;10.77;42.88;101370.38;4935010;29;20059;-90
2023/03/17 11:35:54;;;;;;;5.88;2.75;;;;;;;10.47;43.70;101398.31;4902670;29;20032;-87
2023/03/17 11:38:32;;;;;;;8.95;2.63;;;;;;;10.08;44.06;101370.53;4948231;29;20110;-92
2023/03/17 11:41:23;;;;;;;6.40;2.95;;;;;;;10.24;44.08;101376.19;4904848;29;20039;-95
2023/03/17 11:43:52;;;;;;;6.47;2.92;;;;;;;10.11;44.13;101384.56;4941742;29;20038;-91
2023/03/17 11:46:26;;;;;;;6.03;2.95;;;;;;;10.24;43.55;101380.72;4920628;29;20032;-91
2023/03/17 11:49:47;;;;;;;7.72;2.70;;;;;;;10.06;43.94;101345.66;4924910;29;20078;-92
2023/03/17 11:52:18;;;;;;;8.35;3.00;;;;;;;10.24;44.02;101341.25;4851866;29;20109;-87
2023/03/17 11:55:03;;;;;;;6.68;2.95;;;;;;;10.36;44.05;101366.19;4927912;29;20043;-87
2023/03/17 11:57:48;;;;;;;7.45;2.60;;;;;;;10.55;42.85;101362.63;4924705;29;20113;-90
2023/03/17 12:00:37;;;;;;;5.70;2.63;;;;;;;10.52;42.48;101360.25;5140202;23;21627;-93
2023/03/17 12:03:38;;;;;;;5.00;2.20;;;;;;;10.38;42.62;101355.31;4918695;29;20063;-90
2023/03/17 12:06:26;;;;;;;5.07;2.33;;;;;;;10.48;42.60;101358.81;4925608;29;20047;-89
2023/03/17 12:09:44;;;;;;;8.35;3.38;;;;;;;10.48;43.21;101358.81;4944617;29;20047;-90
2023/03/17 12:12:19;;;;;;;16.20;3.70;;;;;;;10.20;43.26;101352.44;4900672;29;20039;-93
2023/03/17 12:14:52;;;;;;;5.57;2.53;;;;;;;10.22;42.95;101356.69;4915388;29;20036;-93
2023/03/17 12:17:51;;;;;;;5.75;2.40;;;;;;;10.46;43.15;101385.00;4873447;29;20087;-89
2023/03/17 12:20:53;;;;;;;9.88;2.53;;;;;;;10.28;43.14;101356.16;4938302;29;20027;-87
2023/03/17 12:23:28;;;;;;;7.40;2.40;;;;;;;10.34;43.02;101384.28;4906934;29;20118;-88
2023/03/17 12:26:18;;;;;;;7.68;2.15;;;;;;;10.24;42.79;101365.44;4914697;29;20039;-92
2023/03/17 12:29:36;;;;;;;10.90;2.80;;;;;;;10.31;43.04;101361.25;4909752;29;20043;-88
2023/03/17 12:32:04;;;;;;;3.55;2.35;;;;;;;10.44;43.03;101362.78;4893458;29;20044;-88
2023/03/17 12:34:38;;;;;;;13.63;3.88;;;;;;;10.51;42.17;101364.78;4866877;29;20024;-88
2023/03/17 12:37:05;;;;;;;5.75;2.25;;;;;;;10.24;41.55;101359.22;4929045;29;20078;-87
2023/03/17 12:39:39;;;;;;;4.53;2.13;;;;;;;10.13;41.53;101352.16;4916828;29;20129;-88
2023/03/17 12:42:04;;;;;;;5.32;1.77;;;;;;;10.16;41.47;101351.88;4915139;29;20043;-88
2023/03/17 12:45:03;;;;;;;3.10;1.80;;;;;;;10.29;41.09;101343.56;4935970;29;20087;-86
2023/03/17 12:48:00;;;;;;;3.65;1.88;;;;;;;10.35;40.78;101351.06;4920638;29;20122;-88
2023/03/17 12:50:41;;;;;;;6.03;1.90;;;;;;;10.41;40.49;101360.38;4938862;29;20104;-88
2023/03/17 12:53:28;;;;;;;6.30;1.90;;;;;;;10.42;40.58;101352.19;4928249;29;20071;-91
2023/03/17 12:55:58;;;;;;;4.80;1.98;;;;;;;10.26;40.91;101323.16;4929829;29;20031;-81
2023/03/17 12:58:36;;;;;;;7.95;2.20;;;;;;;10.50;40.92;101354.16;4926704;29;20416;-83
2023/03/17 13:01:19;;;;;;;6.35;1.95;;;;;;;10.61;40.64;101332.47;4931509;29;20484;-86
2023/03/17 13:04:00;;;;;;;4.40;1.92;;;;;;;10.42;40.90;101354.00;4934559;29;20046;-83
2023/03/17 13:06:27;;;;;;;3.47;1.73;;;;;;;10.51;40.57;101350.47;4931781;29;20055;-86
2023/03/17 13:08:52;;;;;;;6.13;2.20;;;;;;;10.47;41.17;101338.31;4894484;29;20079;-86
2023/03/17 13:11:29;;;;;;;3.88;1.90;;;;;;;10.47;40.81;101352.59;4930368;29;20417;-83
2023/03/17 13:14:33;;;;;;;4.65;2.67;;;;;;;10.42;41.55;101343.25;4887598;29;20135;-83
2023/03/17 13:17:30;;;;;;;6.15;2.70;;;;;;;10.59;41.58;101347.91;4928862;29;20142;-86
2023/03/17 13:20:13;;;;;;;9.25;2.38;;;;;;;10.40;41.16;101345.25;4926926;29;20121;-83
2023/03/17 13:22:41;;;;;;;5.97;2.10;;;;;;;10.21;41.05;101324.56;4929094;29;20036;-85
2023/03/17 13:25:37;;;;;;;6.53;1.98;;;;;;;10.34;40.91;101331.38;4917121;29;20165;-85
2023/03/17 13:28:21;;;;;;;8.52;2.53;;;;;;;10.29;40.64;101333.66;4935838;29;20099;-85
2023/03/17 13:31:10;;;;;;;4.60;2.00;;;;;;;10.13;40.99;101334.19;4930234;29;20040;-88
2023/03/17 13:33:48;;;;;;;6.57;2.00;;;;;;;10.19;40.83;101334.63;4910281;29;20055;-89
2023/03/17 13:36:32;;;;;;;4.20;1.90;;;;;;;10.00;40.64;101309.47;4924249;29;20059;-88
2023/03/17 13:39:29;;;;;;;7.90;2.10;;;;;;;10.08;41.25;101327.56;4943711;29;20428;-90
2023/03/17 13:42:28;;;;;;;4.60;2.10;;;;;;;9.99;40.74;101323.88;4920688;29;20228;-90
2023/03/17 13:45:24;;;;;;;3.72;2.13;;;;;;;10.04;40.83;101326.97;4942756;29;20082;-92
2023/03/17 13:47:55;;;;;;;3.60;2.03;;;;;;;9.84;41.07;101309.16;4937797;29;20083;-90
2023/03/17 13:50:37;;;;;;;5.25;2.38;;;;;;;10.01;41.25;101327.25;4914650;29;20047;-88
2023/03/17 13:53:11;;;;;;;5.82;2.42;;;;;;;10.19;41.10;101330.09;4911772;29;20080;-95
2023/03/17 13:55:40;;;;;;;8.80;4.22;;;;;;;10.15;41.04;101328.69;4900866;29;20043;-90
2023/03/17 13:58:06;;;;;;;6.80;2.95;;;;;;;10.14;40.42;101332.38;4898284;29;20032;-89
2023/03/17 14:00:45;;;;;;;10.48;3.75;;;;;;;10.13;39.75;101341.41;4916545;29;20040;-89
2023/03/17 14:03:37;;;;;;;6.65;2.70;;;;;;;9.83;39.89;101329.81;4914702;29;20036;-87